createdAt,value
2022-11-17T00:01:24.786Z,98438.47
2022-11-17T00:03:54.053Z,98426.50
2022-11-17T00:06:21.986Z,98446.91
2022-11-17T00:08:49.938Z,98447.75
2022-11-17T00:11:18.118Z,98453.09
2022-11-17T00:14:03.503Z,98455.75
2022-11-17T00:16:31.385Z,98455.75
2022-11-17T00:19:18.371Z,98452.94
2022-11-17T00:21:46.318Z,98458.41
2022-11-17T00:24:17.134Z,98468.47
2022-11-17T00:26:58.842Z,98466.91
2022-11-17T00:29:26.789Z,98470.56
2022-11-17T00:32:11.801Z,98466.09
2022-11-17T00:34:41.044Z,98474.81
2022-11-17T00:37:08.968Z,98475.22
2022-11-17T00:39:36.920Z,98482.81
2022-11-17T00:42:05.016Z,98476.38
2022-11-17T00:44:32.987Z,98478.66
2022-11-17T00:47:00.892Z,98481.91
2022-11-17T00:49:28.735Z,98472.06
2022-11-17T00:51:58.034Z,98475.56
2022-11-17T00:54:25.968Z,98482.31
2022-11-17T00:56:53.855Z,98490.06
2022-11-17T00:59:21.756Z,98491.47
2022-11-17T01:01:49.741Z,98490.22
2022-11-17T01:04:17.731Z,98494.31
2022-11-17T01:06:46.534Z,98487.84
2022-11-17T01:09:16.696Z,98485.06
2022-11-17T01:11:44.739Z,98490.41
2022-11-17T01:14:13.371Z,98484.06
2022-11-17T01:16:41.250Z,98488.19
2022-11-17T01:19:11.548Z,98494.22
2022-11-17T01:21:39.428Z,98493.38
2022-11-17T01:24:07.917Z,98476.06
2022-11-17T01:26:37.552Z,98501.06
2022-11-17T01:29:05.754Z,98492.63
2022-11-17T01:31:34.631Z,98502.59
2022-11-17T01:34:02.493Z,98506.63
2022-11-17T01:36:31.384Z,98518.53
2022-11-17T01:38:59.286Z,98518.81
2022-11-17T01:41:28.060Z,98519.78
2022-11-17T01:43:58.064Z,98520.78
2022-11-17T01:46:31.729Z,98515.69
2022-11-17T01:49:01.885Z,98509.50
2022-11-17T01:51:30.147Z,98511.06
2022-11-17T01:53:58.197Z,98519.22
2022-11-17T01:56:28.284Z,98524.78
2022-11-17T01:58:59.667Z,98526.63
2022-11-17T02:01:27.592Z,98530.13
2022-11-17T02:03:55.483Z,98538.56
2022-11-17T02:06:26.061Z,98533.34
2022-11-17T02:08:53.968Z,98537.59
2022-11-17T02:11:21.884Z,98542.09
2022-11-17T02:13:50.085Z,98544.16
2022-11-17T02:16:19.411Z,98545.00
2022-11-17T02:18:47.476Z,98550.19
2022-11-17T02:21:39.360Z,98544.16
2022-11-17T02:24:43.228Z,98550.50
2022-11-17T02:27:40.511Z,98553.78
2022-11-17T02:30:09.128Z,98546.03
2022-11-17T02:32:40.565Z,98532.41
2022-11-17T02:35:13.139Z,98553.63
2022-11-17T02:37:43.438Z,98558.97
2022-11-17T02:40:12.525Z,98576.66
2022-11-17T02:43:00.394Z,98574.94
2022-11-17T02:45:30.574Z,98588.84
2022-11-17T02:47:58.443Z,98595.63
2022-11-17T02:50:28.412Z,98594.63
2022-11-17T02:52:56.814Z,98597.16
2022-11-17T02:55:24.723Z,98591.72
2022-11-17T02:57:53.946Z,98594.22
2022-11-17T03:00:22.062Z,98598.91
2022-11-17T03:03:11.550Z,98597.22
2022-11-17T03:05:42.574Z,98609.19
2022-11-17T03:08:16.236Z,98596.09
2022-11-17T03:10:50.463Z,98603.69
2022-11-17T03:13:23.679Z,98616.91
2022-11-17T03:15:53.504Z,98633.44
2022-11-17T03:18:22.925Z,98637.88
2022-11-17T03:20:54.293Z,98632.72
2022-11-17T03:23:24.556Z,98634.91
2022-11-17T03:25:54.829Z,98627.44
2022-11-17T03:28:25.809Z,98628.59
2022-11-17T03:30:53.724Z,98636.09
2022-11-17T03:33:22.579Z,98635.53
2022-11-17T03:35:51.451Z,98643.91
2022-11-17T03:38:19.780Z,98651.25
2022-11-17T03:40:47.972Z,98651.53
2022-11-17T03:43:16.482Z,98654.44
2022-11-17T03:45:46.708Z,98654.69
2022-11-17T03:48:15.631Z,98663.50
2022-11-17T03:50:46.518Z,98655.81
2022-11-17T03:53:14.433Z,98663.28
2022-11-17T03:55:44.422Z,98674.50
2022-11-17T03:58:13.849Z,98673.41
2022-11-17T04:00:41.776Z,98682.97
2022-11-17T04:03:11.002Z,98690.81
2022-11-17T04:05:38.950Z,98692.53
2022-11-17T04:08:07.144Z,98701.00
2022-11-17T04:10:55.037Z,98691.06
2022-11-17T04:13:36.963Z,98697.09
2022-11-17T04:16:05.744Z,98697.69
2022-11-17T04:18:34.971Z,98692.97
2022-11-17T04:21:04.140Z,98688.94
2022-11-17T04:23:32.040Z,98693.66
2022-11-17T04:26:17.205Z,98692.28
2022-11-17T04:28:46.241Z,98697.22
2022-11-17T04:31:14.915Z,98698.69
2022-11-17T04:33:44.958Z,98705.22
2022-11-17T04:36:13.636Z,98717.28
2022-11-17T04:38:42.636Z,98722.88
2022-11-17T04:41:28.580Z,98725.25
2022-11-17T04:43:56.569Z,98714.25
2022-11-17T04:46:24.917Z,98720.84
2022-11-17T04:48:54.830Z,98726.06
2022-11-17T04:51:22.951Z,98733.72
2022-11-17T04:53:50.923Z,98739.84
2022-11-17T04:56:19.790Z,98731.78
2022-11-17T04:58:47.790Z,98730.94
2022-11-17T05:01:17.483Z,98734.66
2022-11-17T05:03:45.889Z,98737.31
2022-11-17T05:06:17.250Z,98722.94
2022-11-17T05:08:45.442Z,98720.88
2022-11-17T05:11:31.320Z,98715.47
2022-11-17T05:13:59.243Z,98721.75
2022-11-17T05:16:44.520Z,98732.38
2022-11-17T05:19:13.621Z,98737.69
2022-11-17T05:21:42.882Z,98732.59
2022-11-17T05:24:09.910Z,98735.25
2022-11-17T05:26:38.533Z,98742.88
2022-11-17T05:29:07.126Z,98739.41
2022-11-17T05:31:35.308Z,98743.88
2022-11-17T05:34:03.260Z,98747.13
2022-11-17T05:36:31.147Z,98741.69
2022-11-17T05:39:00.424Z,98743.25
2022-11-17T05:41:28.825Z,98742.28
2022-11-17T05:43:56.904Z,98735.16
2022-11-17T05:46:25.181Z,98743.88
2022-11-17T05:48:53.477Z,98746.66
2022-11-17T05:51:24.190Z,98741.44
2022-11-17T05:53:52.129Z,98742.28
2022-11-17T05:56:30.820Z,98770.63
2022-11-17T05:59:02.396Z,98766.59
2022-11-17T06:01:30.674Z,98754.03
2022-11-17T06:03:59.930Z,98762.16
2022-11-17T06:06:27.815Z,98761.91
2022-11-17T06:08:55.648Z,98768.78
2022-11-17T06:11:24.963Z,98765.75
2022-11-17T06:13:52.912Z,98765.38
2022-11-17T06:16:22.621Z,98770.13
2022-11-17T06:18:53.176Z,98767.09
2022-11-17T06:21:21.112Z,98775.44
2022-11-17T06:23:49.005Z,98773.97
2022-11-17T06:26:16.938Z,98779.75
2022-11-17T06:28:46.580Z,98753.91
2022-11-17T06:31:14.490Z,98785.47
2022-11-17T06:33:42.459Z,98775.63
2022-11-17T06:36:10.458Z,98788.84
2022-11-17T06:38:38.379Z,98787.00
2022-11-17T06:41:11.702Z,98782.78
2022-11-17T06:43:40.055Z,98777.00
2022-11-17T06:46:09.394Z,98780.16
2022-11-17T06:48:37.929Z,98772.63
2022-11-17T06:51:06.737Z,98779.31
2022-11-17T06:53:35.233Z,98777.97
2022-11-17T06:56:08.273Z,98779.19
2022-11-17T06:58:36.912Z,98790.06
2022-11-17T07:01:10.000Z,98792.72
2022-11-17T07:03:38.739Z,98783.66
2022-11-17T07:06:07.975Z,98791.19
2022-11-17T07:08:36.353Z,98787.03
2022-11-17T07:11:04.556Z,98778.56
2022-11-17T07:13:33.083Z,98781.47
2022-11-17T07:16:04.068Z,98790.78
2022-11-17T07:18:33.704Z,98788.72
2022-11-17T07:21:03.903Z,98796.31
2022-11-17T07:23:32.211Z,98801.28
2022-11-17T07:26:00.078Z,98801.06
2022-11-17T07:28:28.167Z,98810.84
2022-11-17T07:30:56.094Z,98805.38
2022-11-17T07:33:24.074Z,98816.75
2022-11-17T07:35:53.489Z,98815.91
2022-11-17T07:38:21.434Z,98820.16
2022-11-17T07:40:49.366Z,98822.81
2022-11-17T07:43:17.596Z,98830.44
2022-11-17T07:45:45.643Z,98832.88
2022-11-17T07:48:13.611Z,98833.75
2022-11-17T07:50:41.895Z,98827.66
2022-11-17T07:53:11.319Z,98841.59
2022-11-17T07:55:39.310Z,98835.41
2022-11-17T07:58:07.275Z,98847.78
2022-11-17T08:00:35.347Z,98847.66
2022-11-17T08:03:04.204Z,98854.78
2022-11-17T08:05:32.325Z,98848.59
2022-11-17T08:08:00.708Z,98852.25
2022-11-17T08:10:31.374Z,98851.63
2022-11-17T08:12:59.987Z,98861.44
2022-11-17T08:15:28.061Z,98851.63
2022-11-17T08:17:56.345Z,98859.53
2022-11-17T08:20:24.459Z,98869.91
2022-11-17T08:22:52.702Z,98865.06
2022-11-17T08:25:20.673Z,98870.16
2022-11-17T08:27:52.113Z,98871.75
2022-11-17T08:30:20.523Z,98869.91
2022-11-17T08:32:49.574Z,98879.09
2022-11-17T08:35:17.689Z,98887.72
2022-11-17T08:37:45.741Z,98881.28
2022-11-17T08:40:14.486Z,98888.06
2022-11-17T08:42:42.648Z,98886.97
2022-11-17T08:45:12.444Z,98888.41
2022-11-17T08:47:40.529Z,98896.03
2022-11-17T08:50:09.481Z,98893.69
2022-11-17T08:52:37.479Z,98894.03
2022-11-17T08:55:07.044Z,98897.03
2022-11-17T08:57:35.097Z,98882.75
2022-11-17T09:00:03.442Z,98891.28
2022-11-17T09:02:33.158Z,98900.72
2022-11-17T09:05:01.122Z,98899.75
2022-11-17T09:07:34.570Z,98904.38
2022-11-17T09:10:02.871Z,98893.94
2022-11-17T09:12:30.829Z,98903.25
2022-11-17T09:14:58.922Z,98913.16
2022-11-17T09:17:26.881Z,98906.22
2022-11-17T09:19:56.210Z,98902.91
2022-11-17T09:22:24.096Z,98907.75
2022-11-17T09:24:52.109Z,98903.25
2022-11-17T09:27:20.058Z,98916.75
2022-11-17T09:29:48.010Z,98914.06
2022-11-17T09:32:16.882Z,98915.00
2022-11-17T09:34:44.865Z,98908.09
2022-11-17T09:37:14.232Z,98910.03
2022-11-17T09:39:42.145Z,98921.72
2022-11-17T09:42:14.051Z,98925.47
2022-11-17T09:44:43.269Z,98929.34
2022-11-17T09:47:22.979Z,98931.75
2022-11-17T09:49:58.316Z,98933.47
2022-11-17T09:52:29.975Z,98928.00
2022-11-17T09:54:58.618Z,98926.75
2022-11-17T09:57:30.438Z,98927.34
2022-11-17T10:00:05.385Z,98933.72
2022-11-17T10:02:33.583Z,98935.16
2022-11-17T10:05:01.653Z,98941.81
2022-11-17T10:07:32.765Z,98943.88
2022-11-17T10:10:01.663Z,98938.91
2022-11-17T10:12:33.734Z,98951.34
2022-11-17T10:15:03.461Z,98955.59
2022-11-17T10:17:32.735Z,98951.19
2022-11-17T10:20:00.753Z,98958.97
2022-11-17T10:22:35.527Z,98969.78
2022-11-17T10:25:03.463Z,98970.75
2022-11-17T10:27:32.649Z,98964.63
2022-11-17T10:30:01.451Z,98969.97
2022-11-17T10:32:31.695Z,98964.44
2022-11-17T10:35:14.299Z,98967.16
2022-11-17T10:37:44.830Z,98968.94
2022-11-17T10:40:24.787Z,98967.94
2022-11-17T10:43:02.092Z,98969.19
2022-11-17T10:45:29.993Z,98969.84
2022-11-17T10:48:11.528Z,98965.97
2022-11-17T10:50:39.455Z,98962.94
2022-11-17T10:53:23.302Z,98959.00
2022-11-17T10:55:55.716Z,98964.47
2022-11-17T10:58:25.841Z,98956.75
2022-11-17T11:00:54.448Z,98961.56
2022-11-17T11:03:23.302Z,98956.97
2022-11-17T11:06:01.810Z,98958.88
2022-11-17T11:08:35.353Z,98967.03
2022-11-17T11:11:08.458Z,98955.59
2022-11-17T11:13:38.393Z,98961.50
2022-11-17T11:16:06.619Z,98965.84
2022-11-17T11:18:34.564Z,98967.56
2022-11-17T11:21:08.344Z,98965.44
2022-11-17T11:23:41.014Z,98966.50
2022-11-17T11:26:24.005Z,98948.22
2022-11-17T11:29:00.744Z,98958.66
2022-11-17T11:31:32.414Z,98962.19
2022-11-17T11:34:05.070Z,98966.72
2022-11-17T11:36:33.969Z,98963.34
2022-11-17T11:39:06.457Z,98969.00
2022-11-17T11:41:49.868Z,98964.72
2022-11-17T11:44:25.870Z,98963.69
2022-11-17T11:46:56.974Z,98956.19
2022-11-17T11:49:29.824Z,98957.31
2022-11-17T11:51:57.824Z,98959.41
2022-11-17T11:54:32.160Z,98954.84
2022-11-17T11:57:00.062Z,98952.06
2022-11-17T11:59:32.696Z,98948.34
2022-11-17T12:02:06.582Z,98957.44
2022-11-17T12:04:38.995Z,98953.19
2022-11-17T12:07:11.243Z,98963.81
2022-11-17T12:09:46.512Z,98959.72
2022-11-17T12:12:15.908Z,98959.50
2022-11-17T12:15:07.725Z,98961.31
2022-11-17T12:17:35.613Z,98965.66
2022-11-17T12:20:09.254Z,98960.56
2022-11-17T12:23:08.869Z,98973.03
2022-11-17T12:25:38.187Z,98975.94
2022-11-17T12:28:27.708Z,98969.78
2022-11-17T12:30:57.049Z,98968.63
2022-11-17T12:33:25.132Z,98970.59
2022-11-17T12:36:16.993Z,98981.88
2022-11-17T12:38:45.740Z,98968.47
2022-11-17T12:41:15.047Z,98978.75
2022-11-17T12:43:43.040Z,98981.81
2022-11-17T12:46:18.186Z,98975.75
2022-11-17T12:48:48.639Z,98965.41
2022-11-17T12:51:17.160Z,98971.66
2022-11-17T12:53:55.391Z,98973.84
2022-11-17T12:56:53.206Z,98977.91
2022-11-17T12:59:43.653Z,98971.94
2022-11-17T13:02:22.059Z,98974.63
2022-11-17T13:04:50.626Z,98973.16
2022-11-17T13:07:19.942Z,98974.38
2022-11-17T13:09:51.025Z,98979.44
2022-11-17T13:12:23.868Z,98981.78
2022-11-17T13:14:55.856Z,98988.53
2022-11-17T13:17:27.475Z,98987.28
2022-11-17T13:20:02.610Z,98983.28
2022-11-17T13:22:30.651Z,98991.56
2022-11-17T13:24:58.882Z,99001.44
2022-11-17T13:27:28.758Z,98994.09
2022-11-17T13:30:14.508Z,98998.03
2022-11-17T13:32:42.501Z,98994.72
2022-11-17T13:35:20.762Z,99002.16
2022-11-17T13:38:02.298Z,99003.00
2022-11-17T13:40:34.439Z,99012.25
2022-11-17T13:43:04.136Z,99016.63
2022-11-17T13:45:32.103Z,99008.69
2022-11-17T13:48:00.348Z,99005.03
2022-11-17T13:50:37.248Z,99016.25
2022-11-17T13:53:20.405Z,99001.66
2022-11-17T13:55:48.419Z,99016.72
2022-11-17T13:58:27.183Z,99016.53
2022-11-17T14:00:57.180Z,99024.25
2022-11-17T14:03:36.575Z,99018.78
2022-11-17T14:06:06.406Z,99015.53
2022-11-17T14:08:34.790Z,99027.53
2022-11-17T14:11:16.731Z,99025.69
2022-11-17T14:13:46.456Z,99030.94
2022-11-17T14:16:21.786Z,99032.78
2022-11-17T14:18:57.063Z,99032.00
2022-11-17T14:21:25.592Z,99036.50
2022-11-17T14:24:03.030Z,99040.25
2022-11-17T14:26:30.954Z,99041.22
2022-11-17T14:29:02.383Z,99038.91
2022-11-17T14:31:31.692Z,99049.84
2022-11-17T14:33:59.858Z,99058.53
2022-11-17T14:36:27.782Z,99054.44
2022-11-17T14:38:55.841Z,99054.00
2022-11-17T14:41:23.733Z,99062.84
2022-11-17T14:43:51.740Z,99065.13
2022-11-17T14:46:22.788Z,99065.56
2022-11-17T14:48:50.785Z,99080.38
2022-11-17T14:51:19.784Z,99060.09
2022-11-17T14:53:47.965Z,99081.16
2022-11-17T14:56:16.432Z,99091.59
2022-11-17T14:58:44.316Z,99079.91
2022-11-17T15:01:12.942Z,99091.94
2022-11-17T15:03:42.598Z,99089.09
2022-11-17T15:06:18.231Z,99099.81
2022-11-17T15:08:49.705Z,99097.59
2022-11-17T15:11:18.877Z,99103.50
2022-11-17T15:13:46.982Z,99111.81
2022-11-17T15:16:15.122Z,99104.59
2022-11-17T15:18:47.263Z,99102.53
2022-11-17T15:21:16.004Z,99119.03
2022-11-17T15:23:46.696Z,99122.78
2022-11-17T15:26:15.837Z,99123.94
2022-11-17T15:28:43.964Z,99134.44
2022-11-17T15:31:13.254Z,99124.38
2022-11-17T15:33:41.732Z,99125.34
2022-11-17T15:36:11.912Z,99127.44
2022-11-17T15:38:40.289Z,99132.97
2022-11-17T15:41:08.465Z,99136.25
2022-11-17T15:43:37.683Z,99137.22
2022-11-17T15:46:06.757Z,99140.50
2022-11-17T15:48:35.186Z,99140.59
2022-11-17T15:51:03.553Z,99145.69
2022-11-17T15:53:33.406Z,99125.94
2022-11-17T15:56:05.675Z,99144.59
2022-11-17T15:58:33.767Z,99146.41
2022-11-17T16:01:10.902Z,99146.56
2022-11-17T16:03:38.886Z,99141.59
2022-11-17T16:06:08.022Z,99160.75
2022-11-17T16:08:37.417Z,99159.78
2022-11-17T16:11:05.514Z,99170.31
2022-11-17T16:13:33.501Z,99171.22
2022-11-17T16:16:01.407Z,99170.41
2022-11-17T16:18:29.792Z,99173.97
2022-11-17T16:21:04.929Z,99174.16
2022-11-17T16:23:39.568Z,99181.47
2022-11-17T16:26:07.595Z,99179.75
2022-11-17T16:28:35.482Z,99191.00
2022-11-17T16:31:13.947Z,99188.13
2022-11-17T16:33:45.125Z,99187.03
2022-11-17T16:36:12.989Z,99190.78
2022-11-17T16:38:49.853Z,99196.47
2022-11-17T16:41:28.685Z,99195.75
2022-11-17T16:43:56.690Z,99198.44
2022-11-17T16:46:26.144Z,99200.72
2022-11-17T16:48:55.001Z,99211.03
2022-11-17T16:51:23.075Z,99210.91
2022-11-17T16:53:56.100Z,99203.19
2022-11-17T16:56:24.130Z,99205.34
2022-11-17T16:58:52.085Z,99215.28
2022-11-17T17:01:23.674Z,99214.66
2022-11-17T17:03:55.521Z,99210.19
2022-11-17T17:06:26.600Z,99216.59
2022-11-17T17:08:56.510Z,99222.06
2022-11-17T17:11:24.473Z,99230.28
2022-11-17T17:13:53.230Z,99223.50
2022-11-17T17:16:21.391Z,99236.69
2022-11-17T17:18:49.568Z,99235.75
2022-11-17T17:21:18.891Z,99244.59
2022-11-17T17:23:46.829Z,99249.09
2022-11-17T17:26:18.181Z,99251.97
2022-11-17T17:28:46.489Z,99246.91
2022-11-17T17:31:20.732Z,99252.25
2022-11-17T17:33:51.926Z,99259.50
2022-11-17T17:36:20.715Z,99260.34
2022-11-17T17:38:53.623Z,99263.00
2022-11-17T17:41:26.992Z,99261.19
2022-11-17T17:43:56.292Z,99268.84
2022-11-17T17:46:24.169Z,99266.91
2022-11-17T17:48:52.348Z,99269.00
2022-11-17T17:51:21.097Z,99274.69
2022-11-17T17:53:50.242Z,99276.03
2022-11-17T17:56:19.048Z,99274.84
2022-11-17T17:58:48.968Z,99276.53
2022-11-17T18:01:17.622Z,99279.81
2022-11-17T18:03:47.942Z,99286.72
2022-11-17T18:06:16.245Z,99287.84
2022-11-17T18:08:44.200Z,99286.50
2022-11-17T18:11:13.892Z,99293.63
2022-11-17T18:13:51.965Z,99292.91
2022-11-17T18:16:22.621Z,99295.06
2022-11-17T18:18:51.059Z,99294.13
2022-11-17T18:21:20.083Z,99309.78
2022-11-17T18:23:48.198Z,99302.84
2022-11-17T18:26:17.120Z,99310.88
2022-11-17T18:28:45.763Z,99317.28
2022-11-17T18:31:13.699Z,99304.19
2022-11-17T18:33:45.191Z,99306.97
2022-11-17T18:36:13.225Z,99319.78
2022-11-17T18:38:41.150Z,99324.41
2022-11-17T18:41:10.149Z,99320.06
2022-11-17T18:43:38.149Z,99318.00
2022-11-17T18:46:06.951Z,99319.56
2022-11-17T18:48:35.129Z,99330.03
2022-11-17T18:51:19.164Z,99320.81
2022-11-17T18:53:47.620Z,99336.47
2022-11-17T18:56:16.301Z,99327.25
2022-11-17T18:58:45.298Z,99327.97
2022-11-17T19:01:14.783Z,99333.81
2022-11-17T19:03:43.724Z,99328.25
2022-11-17T19:06:13.425Z,99337.72
2022-11-17T19:08:41.413Z,99343.69
2022-11-17T19:11:12.268Z,99333.25
2022-11-17T19:13:41.444Z,99331.75
2022-11-17T19:16:10.471Z,99350.44
2022-11-17T19:18:38.507Z,99350.94
2022-11-17T19:21:06.791Z,99355.00
2022-11-17T19:23:36.472Z,99358.41
2022-11-17T19:26:07.141Z,99357.03
2022-11-17T19:28:35.284Z,99357.72
2022-11-17T19:31:03.537Z,99364.25
2022-11-17T19:33:32.460Z,99369.47
2022-11-17T19:36:04.034Z,99374.59
2022-11-17T19:38:33.932Z,99371.56
2022-11-17T19:41:06.880Z,99370.38
2022-11-17T19:43:35.525Z,99374.09
2022-11-17T19:46:06.905Z,99377.44
2022-11-17T19:48:37.001Z,99386.41
2022-11-17T19:51:13.317Z,99380.28
2022-11-17T19:53:41.307Z,99397.53
2022-11-17T19:56:10.761Z,99384.19
2022-11-17T19:58:38.673Z,99391.56
2022-11-17T20:01:10.888Z,99402.22
2022-11-17T20:03:39.148Z,99402.47
2022-11-17T20:06:07.600Z,99407.69
2022-11-17T20:08:35.665Z,99418.16
2022-11-17T20:11:05.029Z,99420.56
2022-11-17T20:13:34.393Z,99423.22
2022-11-17T20:16:04.227Z,99427.50
2022-11-17T20:18:34.271Z,99420.47
2022-11-17T20:21:04.950Z,99427.75
2022-11-17T20:23:33.722Z,99430.63
2022-11-17T20:26:04.354Z,99437.06
2022-11-17T20:28:34.280Z,99442.75
2022-11-17T20:31:07.435Z,99445.66
2022-11-17T20:33:35.552Z,99449.16
2022-11-17T20:36:03.563Z,99453.88
2022-11-17T20:38:31.535Z,99458.38
2022-11-17T20:40:59.641Z,99462.09
2022-11-17T20:43:27.730Z,99461.28
2022-11-17T20:45:57.537Z,99465.63
2022-11-17T20:48:25.650Z,99472.44
2022-11-17T20:50:57.452Z,99464.09
2022-11-17T20:53:25.613Z,99472.72
2022-11-17T20:55:53.839Z,99466.06
2022-11-17T20:58:22.023Z,99471.06
2022-11-17T21:00:49.954Z,99473.72
2022-11-17T21:03:19.319Z,99483.34
2022-11-17T21:05:58.430Z,99485.47
2022-11-17T21:08:27.318Z,99506.91
2022-11-17T21:10:55.995Z,99490.81
2022-11-17T21:13:23.945Z,99488.22
2022-11-17T21:16:03.672Z,99488.31
2022-11-17T21:18:33.044Z,99483.53
2022-11-17T21:21:05.399Z,99485.78
2022-11-17T21:23:33.330Z,99483.47
2022-11-17T21:26:04.628Z,99487.47
2022-11-17T21:28:32.572Z,99497.72
2022-11-17T21:31:08.041Z,99504.19
2022-11-17T21:33:37.605Z,99510.13
2022-11-17T21:36:06.620Z,99513.31
2022-11-17T21:38:34.630Z,99515.78
2022-11-17T21:41:03.825Z,99526.84
2022-11-17T21:43:31.775Z,99520.47
2022-11-17T21:46:02.481Z,99524.69
2022-11-17T21:48:30.413Z,99536.88
2022-11-17T21:50:59.843Z,99536.19
2022-11-17T21:53:27.817Z,99541.09
2022-11-17T21:56:01.254Z,99537.94
2022-11-17T21:58:29.160Z,99539.28
2022-11-17T22:00:57.126Z,99534.59
2022-11-17T22:03:25.112Z,99536.41
2022-11-17T22:05:56.788Z,99536.53
2022-11-17T22:08:28.817Z,99546.19
2022-11-17T22:10:56.777Z,99554.94
2022-11-17T22:13:24.717Z,99554.06
2022-11-17T22:15:52.684Z,99557.38
2022-11-17T22:18:21.334Z,99547.13
2022-11-17T22:20:51.932Z,99560.69
2022-11-17T22:23:19.826Z,99564.09
2022-11-17T22:25:55.607Z,99565.25
2022-11-17T22:28:23.852Z,99574.72
2022-11-17T22:30:56.416Z,99591.88
2022-11-17T22:33:24.583Z,99583.91
2022-11-17T22:35:52.621Z,99582.22
2022-11-17T22:38:20.524Z,99584.09
2022-11-17T22:40:48.609Z,99591.25
2022-11-17T22:43:17.946Z,99582.28
2022-11-17T22:45:46.156Z,99582.94
2022-11-17T22:48:14.110Z,99583.47
2022-11-17T22:50:42.003Z,99583.38
2022-11-17T22:53:09.881Z,99580.59
2022-11-17T22:55:37.814Z,99584.75
2022-11-17T22:58:05.707Z,99565.47
2022-11-17T23:00:34.985Z,99595.97
2022-11-17T23:03:03.021Z,99602.50
2022-11-17T23:05:31.818Z,99599.47
2022-11-17T23:08:03.047Z,99599.88
2022-11-17T23:10:33.325Z,99602.13
2022-11-17T23:13:01.434Z,99608.50
2022-11-17T23:15:31.947Z,99621.69
2022-11-17T23:18:01.250Z,99619.75
2022-11-17T23:20:29.168Z,99618.13
2022-11-17T23:22:57.125Z,99615.34
2022-11-17T23:25:25.133Z,99624.88
2022-11-17T23:27:53.125Z,99628.91
2022-11-17T23:30:21.220Z,99636.28
2022-11-17T23:32:49.121Z,99633.22
2022-11-17T23:35:18.622Z,99635.56
2022-11-17T23:37:46.489Z,99640.88
2022-11-17T23:40:14.570Z,99637.16
2022-11-17T23:42:43.360Z,99649.44
2022-11-17T23:45:12.867Z,99650.19
2022-11-17T23:47:41.000Z,99647.41
2022-11-17T23:50:09.909Z,99657.00
2022-11-17T23:52:39.167Z,99658.50
2022-11-17T23:55:08.602Z,99658.31
2022-11-17T23:57:36.521Z,99660.03
